Crooked Creek Research Lab Weather observations

Data are for 10 minute period ending at time listed.
 Day   Time    Ave.   Ave.  Ave.  Vector   Max.   Stn.    Total    Solar   Ave.   Snow 
  of    of     Air    Rel.  Wind   Wind    Wind   Baro.  Precip.   Rad.    Soil   Depth
Year   Day     Temp.  Hum.  Speed  Dir.    Gust   Pres.                    Temp.       
2014   (PST)    F      %     mph   deg.    mph     mb.     in.     W/m2     F      in. 
---------------------------------------------------------------------------------------  
 210    0:00   48.8    89    1.4   210      5.7   710.4    0.00       0    999.0    -0.5
 210    0:10   48.7    90    1.9   147      3.7   710.4    0.00       0    999.0    -0.5
 210    0:20   48.7    88    2.1   163      5.6   710.2    0.00       0    999.0    -0.5
 210    0:30   49.1    86    2.2   220      6.1   710.2    0.00       0    999.0    -0.5
 210    0:40   48.9    88    2.1   192      7.5   710.2    0.00       0    999.0    -0.5
 210    0:50   48.7    87    1.9   151      5.3   710.1    0.00       0    999.0    -0.5
 210    1:00   48.7    88    2.4   187      5.1   710.1    0.00       0    999.0    -0.4
 210    1:10   48.5    90    1.8   152      4.7   710.0    0.00       0    999.0    -0.3
 210    1:20   48.3    92    1.6   148      3.1   709.9    0.00       0    999.0    -0.3
 210    1:30   48.3    94    2.1   146      3.6   709.8    0.00       0    999.0    -0.4
 210    1:40   48.2    95    2.2   162      3.4   709.7    0.00       0    999.0     8.7
 210    1:50   48.1    96    0.5   161      2.4   709.6    0.00       0    999.0    -0.4
 210    2:00   47.9    97    1.2   144      3.2   709.6    0.00       0    999.0    -0.5
 210    2:10   47.7    98    1.1   152      2.1   709.6    0.00       0    999.0    -0.5
 210    2:20   47.3    98    0.9   209      2.3   709.5    0.00       0    999.0    -0.5
 210    2:30   47.0    98    0.0     0      0.0   709.5    0.00       0    999.0    -0.5
 210    2:40   46.7    99    1.0   155      2.5   709.6    0.00       0    999.0    -0.6
 210    2:50   46.3    99    0.2   208      1.1   709.5    0.00       0    999.0    -0.6
 210    3:00   46.1    99    0.1   149      1.6   709.5    0.00       0    999.0    -0.5
 210    3:10   46.2    99    0.3   143      1.8   709.7    0.00       0    999.0    -0.6
 210    3:20   45.9    99    0.0     0      0.0   709.7    0.00       0    999.0    -0.5
 210    3:30   45.8    99    0.9   143      1.8   709.8    0.00       0    999.0    -0.6
 210    3:40   45.3    99    0.0     0      0.0   709.7    0.00       0    999.0    -0.6
 210    3:50   45.1   100    0.2   143      0.8   709.7    0.00       0    999.0    -0.6
 210    4:00   44.9    99    0.2   141      1.2   709.6    0.00       0    999.0    -0.6
 210    4:10   44.7   100    0.8   222      2.3   709.7    0.00       0    999.0    -0.6
 210    4:20   44.5   100    0.1   210      0.7   709.5    0.00       0    999.0    -0.6
 210    4:30   44.2    99    0.8   230      2.6   709.5    0.00       0    999.0    -0.6
 210    4:40   44.6    98    1.0   219      3.0   709.6    0.00       1    999.0    -0.6
 210    4:50   44.6    98    0.8   224      3.7   709.5    0.00       3    999.0    -0.6
 210    5:00   44.1    99    1.1   154      2.6   709.7    0.00      10    999.0    -0.6
 210    5:10   44.1    98    0.3   260      1.3   709.7    0.00      25    999.0    -0.4
 210    5:20   44.5    99    0.3   260      1.1   709.8    0.00      52    999.0    -0.5
 210    5:30   45.6    99    0.6   134      2.5   709.8    0.00      85    999.0    -0.5
 210    5:40   47.2    95    1.0   202      2.0   709.7    0.00     114    999.0    -0.4
 210    5:50   48.8    94    0.7   228      2.5   709.8    0.00     138    999.0    -0.4
 210    6:00   49.7    90    1.6   237      2.9   709.9    0.00     115    999.0    -0.3
 210    6:10   50.4    90    0.1   247      1.1   710.0    0.00     107    999.0    -0.3
 210    6:20   51.0    90    0.0     0      0.0   710.0    0.00     118    999.0    -0.4
 210    6:30   52.3    86    0.0     0      0.0   710.1    0.00     234    999.0    -0.4
 210    6:40   54.1    79    0.4   108      1.9   710.0    0.00     178    999.0    -0.5
 210    6:50   54.1    74    0.2    90      1.1   710.1    0.00     186    999.0    -0.5
 210    7:00   56.4    70    1.1    19      3.0   710.1    0.00     434    999.0    -0.6
 210    7:10   58.6    66    1.5    18      4.2   710.2    0.00     484    999.0    -0.8
 210    7:20   57.8    66    2.4    17      4.2   710.2    0.00     369    999.0    -0.7
 210    7:30   58.2    65    2.6   352      4.9   710.5    0.00     527    999.0    -0.6
 210    7:40   58.4    64    2.2   331      4.7   710.3    0.00     567    999.0    -0.6
 210    7:50   58.6    65    3.1   230      7.0   710.4    0.00     588    999.0    -0.6
 210    8:00   57.4    67    2.6   236      5.8   710.6    0.00     392    999.0    -0.5
 210    8:10   56.9    68    4.2   229      8.3   710.4    0.00     403    999.0    -0.5
 210    8:20   56.1    69    4.1   228      8.6   710.4    0.00     309    999.0    -0.4
 210    8:30   55.9    70    4.3   238      6.5   710.4    0.00     261    999.0    -0.3
 210    8:40   56.0    71    4.2   234      9.1   710.4    0.00     266    999.0    -0.4
 210    8:50   55.7    70    5.1   234      8.5   710.5    0.00     235    999.0    -0.4
 210    9:00   55.5    72    3.9   230      8.9   710.4    0.00     124    999.0    -0.5
 210    9:10   55.0    73    3.6   181      8.8   710.5    0.00      60    999.0    -0.5
 210    9:20   53.1    80    5.2   144     10.3   710.5    0.00      59    999.0    -0.6
 210    9:30   50.9    87    3.8   247      8.3   710.5    0.00      96    999.0    -0.5
 210    9:40   50.8    84    7.1   276      9.2   710.4    0.00      85    999.0    -0.6
 210    9:50   50.5    84    4.9   252      8.6   710.4    0.00      46    999.0    -0.5
 210   10:00   49.7    86    2.4   180      4.7   710.5    0.00      31    999.0    -0.5
 210   10:10   48.5    83    4.7   250      9.6   710.6    0.00      31    999.0    -0.6
 210   10:20   43.9    88    9.7   278     14.9   710.3    0.00      46    999.0    -0.5
 210   10:30   45.8    91    7.2   323     15.4   710.2    0.00      38    999.0    -0.3
 210   10:40   45.0    93    4.4   149      8.7   710.5    0.00      38    999.0    -0.5
 210   10:50   43.6    93    4.2   200      7.5   710.4    0.00      46    999.0    -0.4
 210   11:00   41.1    99    3.2   156      7.3   710.5    0.00      52    999.0    -0.4
 210   11:10   41.7   100    1.4    40      4.3   710.4    0.00      51    999.0    -0.2
 210   11:20   42.6   100    3.7   143      5.0   710.4    0.00      89    999.0    -0.4
 210   11:30   43.9   100    2.4   188      3.9   710.4    0.00     124    999.0    -0.4
 210   11:40   44.9   100    2.5   157      4.1   710.5    0.00     110    999.0    -0.4
 210   11:50   45.5   100    1.1   185      2.6   710.6    0.00      88    999.0    -0.4
 210   12:00   45.6    99    2.4   188      4.7   710.5    0.00      88    999.0    -0.2
 210   12:10   45.4    98    0.8   141      3.2   710.6    0.00      67    999.0    -0.1
 210   12:20   44.8    99    2.1   244      3.5   710.5    0.00      53    999.0    -0.1
 210   12:30   44.8   100    0.6   188      2.0   710.4    0.00     102    999.0    -0.1
 210   12:40   45.2   100    0.3   110      1.0   710.5    0.00      85    999.0    -0.1
 210   12:50   45.6   100    1.3   172      3.0   710.5    0.00     100    999.0    -0.2
 210   13:00   45.8   100    2.2   163      4.4   710.4    0.00     118    999.0    -0.3
 210   13:10   46.0    99    1.0   152      3.9   710.4    0.00      85    999.0    -0.2
 210   13:20   45.9    97    2.5   143      5.6   710.4    0.00      66    999.0    -0.2
 210   13:30   45.7    99    0.1   207      1.2   710.4    0.00      53    999.0    -0.3
 210   13:40   45.7   100    0.5   211      2.2   710.3    0.00      59    999.0    -0.3
 210   13:50   45.9    98    2.4   288      6.4   710.1    0.00      82    999.0    -0.2
 210   14:00   47.4    89    5.8   306      8.7   710.1    0.00     114    999.0    -0.2
 210   14:10   48.4    83    4.9   313     11.2   710.0    0.00     140    999.0    -0.3
 210   14:20   48.7    83    5.0   312     10.8   710.1    0.00     134    999.0    -0.3
 210   14:30   48.9    82    4.8   254     12.9   710.0    0.00     148    999.0    -0.3
 210   14:40   49.5    79    5.2   311     11.0   709.9    0.00     174    999.0    -0.3
 210   14:50   49.6    84    2.6   278      8.0   710.0    0.00     242    999.0    -0.3
 210   15:00   50.7    83    3.5   275     10.1   709.9    0.00     384    999.0    -0.3
 210   15:10   51.4    79    5.8   286     10.4   709.9    0.00     373    999.0    -0.4
 210   15:20   51.9    80    5.4   251     11.0   709.9    0.00     243    999.0    -0.5
 210   15:30   50.8    87    4.3   235     10.9   709.9    0.00     105    999.0    -0.5
 210   15:40   49.9    90    3.6   210      8.0   709.9    0.00      68    999.0    -0.5
 210   15:50   49.5    92    3.0   156      8.0   709.9    0.00      62    999.0    -0.3
 210   16:00   49.0    96    1.5    82      6.7   709.9    0.00      50    999.0    -0.3
 210   16:10   48.9    95    5.3    49     13.6   709.9    0.00      95    999.0    -0.5
 210   16:20   48.3    95    5.9    46     11.5   709.7    0.00     104    999.0    -0.5
 210   16:30   48.3    94    5.1    60     11.4   709.9    0.00     131    999.0    -0.4
 210   16:40   48.1    94    5.8    50     18.3   709.8    0.00      84    999.0    -0.4
 210   16:50   47.6    93    6.0    38     13.4   709.9    0.00      60    999.0    -0.5
 210   17:00   47.3    93    4.0    64     12.7   709.9    0.00      35    999.0    -0.5
 210   17:10   47.2    93    4.5    62     10.9   709.9    0.00      22    999.0    -0.4
 210   17:20   46.9    94    7.0    58     15.1   710.0    0.00      20    999.0    -0.4
 210   17:30   46.6    95    7.9    47     12.8   710.0    0.00      27    999.0    -0.4
 210   17:40   46.5    96    6.9    54     12.1   710.0    0.00      20    999.0    -0.4
 210   17:50   46.4    96    4.6    43      9.1   710.1    0.00      14    999.0    -0.3
 210   18:00   46.3    97    2.4    41      5.6   710.0    0.00      13    999.0    -0.3
 210   18:10   46.2    97    3.2    52      7.7   710.0    0.00      17    999.0    -0.3
 210   18:20   46.1    97    2.6   285      6.9   709.9    0.00      14    999.0    -0.3
 210   18:30   46.0    97    0.8   339      3.4   709.9    0.00      10    999.0    -0.2
 210   18:40   46.1    95    1.0   350      3.2   709.8    0.00       8    999.0    -0.2
 210   18:50   46.0    94    1.7    24      6.2   709.9    0.00       5    999.0    -0.2
 210   19:00   46.2    92    1.8   122      3.8   709.8    0.00       1    999.0    -0.3
 210   19:10   46.0    91    1.2   268      2.9   709.8    0.00       0    999.0    -0.3
 210   19:20   46.1    90    2.0   139      5.5   709.8    0.00       0    999.0    -0.3
 210   19:30   46.3    88    2.0    60      7.7   710.0    0.00       0    999.0    -0.4
 210   19:40   46.2    88    1.9    13      7.2   709.9    0.00       0    999.0    -0.3
 210   19:50   45.9    90    2.0   158      6.7   710.0    0.00       0    999.0    -0.4
 210   20:00   46.1    88    5.0    50     14.5   710.0    0.00       0    999.0    -0.3
 210   20:10   46.5    87    6.1    41     11.8   710.0    0.00       0    999.0    -0.4
 210   20:20   46.4    87    6.8    45     13.5   710.0    0.00       0    999.0    -0.3
 210   20:30   46.3    87    5.5    46     11.3   710.0    0.00       0    999.0    -0.3
 210   20:40   46.4    86    4.8    52     10.5   710.1    0.00       0    999.0    -0.3
 210   20:50   46.4    86    5.1    62     11.4   710.0    0.00       0    999.0    -0.3
 210   21:00   46.3    87    3.5    50      8.1   710.1    0.00       0    999.0    -0.3
 210   21:10   46.1    88    3.8    42      9.6   710.0    0.00       0    999.0    -0.3
 210   21:20   46.8    85    5.2    37     11.3   709.9    0.00       0    999.0    -0.3
 210   21:30   46.8    86    3.8    33     10.5   709.8    0.00       0    999.0    -0.3
 210   21:40   47.0    85    5.3    41     11.8   709.8    0.00       0    999.0    -0.3
 210   21:50   47.3    83    7.5    38     14.0   709.8    0.00       0    999.0    -0.3
 210   22:00   47.5    81    7.9    38     20.5   709.8    0.00       0    999.0    -0.3
 210   22:10   47.7    78    8.6    44     17.8   709.5    0.00       0    999.0    -0.4
 210   22:20   47.7    77    8.3    36     17.3   709.5    0.00       0    999.0    -0.3
 210   22:30   47.7    78   10.2    40     20.4   709.5    0.00       0    999.0    -0.4
 210   22:40   47.6    80    9.5    42     18.9   709.5    0.00       0    999.0    -0.4
 210   22:50   47.5    82    9.6    42     18.0   709.6    0.00       0    999.0    -0.4
 210   23:00   47.2    84    8.0    43     14.8   709.5    0.00       0    999.0    -0.3
 210   23:10   46.8    88    6.7    32     16.0   709.4    0.00       0    999.0    -0.4
 210   23:20   46.5    90    9.0    36     18.3   709.5    0.00       0    999.0    -0.4
 210   23:30   46.4    92    6.4    36     14.2   709.4    0.00       0    999.0    -0.3
 210   23:40   46.3    93    5.6    35     12.1   709.5    0.00       0    999.0    -0.3
 210   23:50   46.3    94    5.7    36     13.8   709.5    0.00       0    999.0    -0.3

Return to Crooked Creek Research Lab graphs page.


Western Regional Climate Center,wrcc@dri.edu